createdAt,value
2022-10-01T00:01:49.037Z,95032.00
2022-10-01T00:04:15.077Z,95035.40
2022-10-01T00:06:41.098Z,95040.60
2022-10-01T00:09:07.083Z,95046.80
2022-10-01T00:11:33.924Z,95052.40
2022-10-01T00:14:01.209Z,95047.20
2022-10-01T00:16:29.960Z,95044.20
2022-10-01T00:18:57.465Z,95041.40
2022-10-01T00:21:27.441Z,95045.00
2022-10-01T00:23:58.555Z,95044.20
2022-10-01T00:26:28.851Z,95042.00
2022-10-01T00:29:02.498Z,95044.00
2022-10-01T00:31:30.040Z,95047.60
2022-10-01T00:33:58.146Z,95047.80
2022-10-01T00:36:25.811Z,95050.40
2022-10-01T00:38:51.789Z,95047.40
2022-10-01T00:41:19.122Z,95045.60
2022-10-01T00:43:49.939Z,95049.80
2022-10-01T00:46:38.642Z,95052.60
2022-10-01T00:49:20.615Z,95045.00
2022-10-01T00:52:03.079Z,95044.80
2022-10-01T00:54:57.721Z,95052.40
2022-10-01T00:57:26.953Z,95051.00
2022-10-01T00:59:56.803Z,95047.20
2022-10-01T01:02:22.858Z,95045.80
2022-10-01T01:04:48.874Z,95043.60
2022-10-01T01:07:15.501Z,95038.20
2022-10-01T01:09:46.704Z,95030.40
2022-10-01T01:12:24.866Z,95022.40
2022-10-01T01:15:16.979Z,95020.60
2022-10-01T01:18:14.182Z,95022.00
2022-10-01T01:20:51.079Z,95018.40
2022-10-01T01:23:16.923Z,95013.60
2022-10-01T01:26:35.948Z,95010.00
2022-10-01T01:29:10.763Z,95008.00
2022-10-01T01:31:45.705Z,94999.00
2022-10-01T01:34:17.839Z,95012.60
2022-10-01T01:36:52.309Z,95018.00
2022-10-01T01:39:20.997Z,95021.20
2022-10-01T01:41:56.448Z,95022.40
2022-10-01T01:44:27.968Z,95019.00
2022-10-01T01:46:55.795Z,95021.00
2022-10-01T01:49:22.958Z,95030.00
2022-10-01T01:52:15.359Z,95023.80
2022-10-01T01:54:44.039Z,95023.40
2022-10-01T01:57:12.512Z,95023.00
2022-10-01T01:59:41.807Z,95023.20
2022-10-01T02:02:16.403Z,95018.20
2022-10-01T02:04:58.744Z,95014.00
2022-10-01T02:08:07.329Z,95012.40
2022-10-01T02:10:51.780Z,95007.00
2022-10-01T02:14:00.190Z,95004.40
2022-10-01T02:16:47.451Z,95014.40
2022-10-01T02:19:43.740Z,95013.20
2022-10-01T02:22:17.663Z,95012.40
2022-10-01T02:24:57.491Z,95012.20
2022-10-01T02:27:32.960Z,95012.60
2022-10-01T02:30:07.219Z,95021.40
2022-10-01T02:32:36.951Z,95017.00
2022-10-01T02:35:06.903Z,95017.20
2022-10-01T02:37:35.649Z,95019.20
2022-10-01T02:40:04.836Z,95015.60
2022-10-01T02:42:33.089Z,95013.20
2022-10-01T02:45:02.845Z,95012.40
2022-10-01T02:47:38.964Z,95002.20
2022-10-01T02:50:08.080Z,95001.60
2022-10-01T02:52:43.616Z,94996.20
2022-10-01T02:55:22.582Z,94995.40
2022-10-01T02:57:49.548Z,94994.40
2022-10-01T03:00:21.619Z,94986.80
2022-10-01T03:02:49.092Z,94985.00
2022-10-01T03:05:16.938Z,94989.80
2022-10-01T03:07:43.990Z,94989.00
2022-10-01T03:10:11.793Z,94984.00
2022-10-01T03:12:43.607Z,94984.20
2022-10-01T03:15:10.467Z,94982.40
2022-10-01T03:17:37.386Z,94982.80
2022-10-01T03:20:05.211Z,94987.40
2022-10-01T03:22:31.277Z,94990.20
2022-10-01T03:24:57.185Z,94991.40
2022-10-01T03:27:23.146Z,94991.00
2022-10-01T03:29:49.847Z,94996.00
2022-10-01T03:32:16.180Z,94990.20
2022-10-01T03:34:42.079Z,94989.20
2022-10-01T03:37:08.573Z,94986.60
2022-10-01T03:39:35.292Z,94984.20
2022-10-01T03:42:03.141Z,94974.00
2022-10-01T03:44:29.095Z,94967.20
2022-10-01T03:46:55.077Z,94962.20
2022-10-01T03:49:21.063Z,94962.40
2022-10-01T03:51:47.065Z,94964.40
2022-10-01T03:54:13.044Z,94964.00
2022-10-01T03:56:42.046Z,94962.80
2022-10-01T03:59:10.344Z,94960.20
2022-10-01T04:01:37.247Z,94957.20
2022-10-01T04:04:04.225Z,94958.40
2022-10-01T04:06:30.896Z,94962.60
2022-10-01T04:08:56.944Z,94965.60
2022-10-01T04:11:23.936Z,94970.80
2022-10-01T04:13:50.449Z,94973.20
2022-10-01T04:16:16.533Z,94981.80
2022-10-01T04:18:43.092Z,94978.20
2022-10-01T04:21:09.058Z,94974.60
2022-10-01T04:23:34.951Z,94974.20
2022-10-01T04:26:02.453Z,94972.20
2022-10-01T04:28:30.144Z,94977.80
2022-10-01T04:31:14.907Z,94975.20
2022-10-01T04:33:41.282Z,94976.00
2022-10-01T04:36:07.237Z,94975.40
2022-10-01T04:38:34.084Z,94977.80
2022-10-01T04:41:00.239Z,94982.00
2022-10-01T04:43:26.265Z,94983.00
2022-10-01T04:45:52.239Z,94981.20
2022-10-01T04:48:18.272Z,94980.40
2022-10-01T04:50:44.245Z,94982.80
2022-10-01T04:53:10.322Z,94978.40
2022-10-01T04:55:36.215Z,94979.60
2022-10-01T04:58:02.317Z,94982.20
2022-10-01T05:00:28.327Z,94986.80
2022-10-01T05:02:54.419Z,94983.80
2022-10-01T05:05:23.252Z,94982.00
2022-10-01T05:07:49.663Z,94979.60
2022-10-01T05:10:21.742Z,94979.20
2022-10-01T05:12:48.423Z,94976.00
2022-10-01T05:15:16.127Z,94977.80
2022-10-01T05:17:42.827Z,94979.60
2022-10-01T05:20:19.587Z,94982.60
2022-10-01T05:22:46.997Z,94975.60
2022-10-01T05:25:13.157Z,94975.20
2022-10-01T05:27:40.063Z,94976.00
2022-10-01T05:30:11.009Z,94979.40
2022-10-01T05:32:37.578Z,94982.00
2022-10-01T05:35:06.309Z,94982.60
2022-10-01T05:37:33.166Z,94985.80
2022-10-01T05:39:59.252Z,94983.80
2022-10-01T05:42:25.166Z,94985.00
2022-10-01T05:44:51.039Z,94984.20
2022-10-01T05:47:17.710Z,94982.20
2022-10-01T05:49:43.801Z,94991.80
2022-10-01T05:52:11.413Z,94999.40
2022-10-01T05:54:37.662Z,95000.00
2022-10-01T05:57:05.447Z,95002.20
2022-10-01T05:59:32.149Z,95002.60
2022-10-01T06:01:58.474Z,95000.80
2022-10-01T06:04:24.884Z,95002.00
2022-10-01T06:06:53.115Z,95002.20
2022-10-01T06:09:19.120Z,95007.40
2022-10-01T06:11:46.125Z,94998.60
2022-10-01T06:14:12.044Z,94999.60
2022-10-01T06:16:37.991Z,94999.40
2022-10-01T06:19:04.035Z,95005.00
2022-10-01T06:21:30.969Z,95013.20
2022-10-01T06:23:57.116Z,95016.60
2022-10-01T06:26:23.663Z,95014.20
2022-10-01T06:28:50.942Z,95007.00
2022-10-01T06:31:18.443Z,95009.00
2022-10-01T06:33:44.467Z,95000.60
2022-10-01T06:36:10.379Z,95003.20
2022-10-01T06:38:36.371Z,95006.40
2022-10-01T06:41:13.421Z,95007.00
2022-10-01T06:43:39.355Z,95001.60
2022-10-01T06:46:06.219Z,95003.20
2022-10-01T06:48:34.746Z,94999.40
2022-10-01T06:51:00.663Z,95002.00
2022-10-01T06:53:27.734Z,95004.00
2022-10-01T06:55:54.573Z,95008.60
2022-10-01T06:58:26.849Z,95007.40
2022-10-01T07:01:02.477Z,95009.00
2022-10-01T07:03:30.354Z,95007.80
2022-10-01T07:06:04.642Z,95004.80
2022-10-01T07:08:30.558Z,94999.80
2022-10-01T07:11:01.928Z,94997.00
2022-10-01T07:13:27.859Z,94991.40
2022-10-01T07:15:53.783Z,94987.00
2022-10-01T07:18:20.384Z,94986.60
2022-10-01T07:20:46.291Z,94979.00
2022-10-01T07:23:14.759Z,94979.40
2022-10-01T07:25:42.368Z,94983.00
2022-10-01T07:28:17.617Z,94980.60
2022-10-01T07:30:56.804Z,94974.00
2022-10-01T07:33:22.779Z,94964.20
2022-10-01T07:35:48.745Z,94959.80
2022-10-01T07:38:14.968Z,94950.20
2022-10-01T07:40:41.378Z,94952.20
2022-10-01T07:43:08.627Z,94951.20
2022-10-01T07:45:34.618Z,94957.40
2022-10-01T07:48:02.471Z,94957.80
2022-10-01T07:50:29.978Z,94960.20
2022-10-01T07:52:58.210Z,94958.20
2022-10-01T07:55:26.558Z,94962.20
2022-10-01T07:57:54.789Z,94958.60
2022-10-01T08:00:23.065Z,94961.20
2022-10-01T08:02:53.020Z,94954.60
2022-10-01T08:05:22.129Z,94955.20
2022-10-01T08:07:49.311Z,94943.00
2022-10-01T08:10:18.133Z,94944.60
2022-10-01T08:12:44.870Z,94940.80
2022-10-01T08:15:14.763Z,94942.20
2022-10-01T08:17:41.699Z,94937.00
2022-10-01T08:20:12.083Z,94941.40
2022-10-01T08:22:41.846Z,94936.60
2022-10-01T08:25:09.149Z,94936.00
2022-10-01T08:27:35.283Z,94934.80
2022-10-01T08:30:01.202Z,94934.60
2022-10-01T08:32:27.540Z,94933.20
2022-10-01T08:34:56.774Z,94929.80
2022-10-01T08:37:28.294Z,94931.20
2022-10-01T08:39:55.773Z,94928.20
2022-10-01T08:42:49.311Z,94928.20
2022-10-01T08:45:25.286Z,94928.80
2022-10-01T08:48:05.956Z,94920.20
2022-10-01T08:50:44.255Z,94916.60
2022-10-01T08:53:28.346Z,94915.40
2022-10-01T08:55:55.450Z,94915.00
2022-10-01T08:58:29.278Z,94916.60
2022-10-01T09:00:55.210Z,94921.00
2022-10-01T09:03:21.261Z,94916.60
2022-10-01T09:06:13.596Z,94919.40
2022-10-01T09:09:26.527Z,94921.40
2022-10-01T09:12:02.835Z,94914.00
2022-10-01T09:15:15.057Z,94911.40
2022-10-01T09:17:50.365Z,94902.60
2022-10-01T09:20:52.887Z,94904.40
2022-10-01T09:23:28.265Z,94900.60
2022-10-01T09:25:58.095Z,94905.80
2022-10-01T09:28:29.537Z,94905.00
2022-10-01T09:31:22.185Z,94908.80
2022-10-01T09:34:14.510Z,94909.60
2022-10-01T09:37:14.521Z,94913.40
2022-10-01T09:40:14.160Z,94918.60
2022-10-01T09:42:40.684Z,94918.20
2022-10-01T09:45:12.000Z,94922.40
2022-10-01T09:47:38.201Z,94923.80
2022-10-01T09:50:05.842Z,94925.20
2022-10-01T09:52:38.597Z,94915.40
2022-10-01T09:55:11.395Z,94909.80
2022-10-01T09:57:44.275Z,94913.20
2022-10-01T10:00:25.667Z,94917.00
2022-10-01T10:02:54.865Z,94913.00
2022-10-01T10:05:27.724Z,94910.40
2022-10-01T10:08:33.043Z,94911.60
2022-10-01T10:11:02.464Z,94905.00
2022-10-01T10:13:41.274Z,94909.40
2022-10-01T10:16:27.279Z,94915.80
2022-10-01T10:19:10.004Z,94925.00
2022-10-01T10:21:37.343Z,94918.80
2022-10-01T10:24:18.028Z,94924.40
2022-10-01T10:26:57.725Z,94928.80
2022-10-01T10:29:31.440Z,94928.80
2022-10-01T10:32:01.907Z,94926.80
2022-10-01T10:34:37.616Z,94922.60
2022-10-01T10:37:18.721Z,94919.60
2022-10-01T10:39:50.467Z,94925.40
2022-10-01T10:42:22.573Z,94923.00
2022-10-01T10:44:53.848Z,94925.80
2022-10-01T10:47:21.654Z,94914.40
2022-10-01T10:49:54.307Z,94923.00
2022-10-01T10:52:35.449Z,94931.80
2022-10-01T10:55:21.335Z,94934.60
2022-10-01T10:57:47.399Z,94950.80
2022-10-01T11:00:23.480Z,94935.60
2022-10-01T11:02:59.901Z,94938.80
2022-10-01T11:05:31.213Z,94944.40
2022-10-01T11:08:02.595Z,94939.00
2022-10-01T11:11:05.483Z,94940.20
2022-10-01T11:13:54.363Z,94950.00
2022-10-01T11:16:48.055Z,94945.60
2022-10-01T11:19:51.476Z,94951.00
2022-10-01T11:22:39.515Z,94961.40
2022-10-01T11:25:32.237Z,94955.80
2022-10-01T11:28:17.834Z,94959.60
2022-10-01T11:31:22.205Z,94962.20
2022-10-01T11:34:21.862Z,94966.60
2022-10-01T11:37:13.090Z,94953.40
2022-10-01T11:39:42.760Z,94953.80
2022-10-01T11:42:19.344Z,94960.20
2022-10-01T11:45:02.402Z,94948.80
2022-10-01T11:47:36.296Z,94952.60
2022-10-01T11:50:13.773Z,94960.60
2022-10-01T11:52:57.847Z,94968.20
2022-10-01T11:55:54.313Z,94974.20
2022-10-01T11:58:50.940Z,94980.80
2022-10-01T12:01:42.106Z,94979.80
2022-10-01T12:04:33.905Z,94983.00
2022-10-01T12:07:12.064Z,94979.00
2022-10-01T12:09:49.838Z,94978.60
2022-10-01T12:12:34.532Z,94982.20
2022-10-01T12:15:18.320Z,94975.00
2022-10-01T12:18:21.771Z,94970.00
2022-10-01T12:20:53.371Z,94967.80
2022-10-01T12:23:24.406Z,94966.00
2022-10-01T12:26:23.095Z,94967.60
2022-10-01T12:29:20.156Z,94969.20
2022-10-01T12:32:18.364Z,94965.80
2022-10-01T12:35:12.048Z,94969.00
2022-10-01T12:37:44.067Z,94972.60
2022-10-01T12:40:34.820Z,94977.00
2022-10-01T12:43:39.872Z,94976.20
2022-10-01T12:46:25.058Z,94975.00
2022-10-01T12:49:09.935Z,94974.20
2022-10-01T12:51:42.459Z,94971.20
2022-10-01T12:54:49.575Z,94967.00
2022-10-01T12:57:40.121Z,94962.40
2022-10-01T13:00:20.623Z,94953.60
2022-10-01T13:03:14.551Z,94954.00
2022-10-01T13:06:26.579Z,94949.60
2022-10-01T13:09:01.033Z,94945.80
2022-10-01T13:11:50.378Z,94953.20
2022-10-01T13:14:17.403Z,94954.80
2022-10-01T13:16:55.898Z,94958.20
2022-10-01T13:19:26.366Z,94957.80
2022-10-01T13:22:32.679Z,94952.80
2022-10-01T13:25:29.249Z,94955.80
2022-10-01T13:28:19.690Z,94947.40
2022-10-01T13:30:59.803Z,94948.20
2022-10-01T13:33:31.550Z,94948.60
2022-10-01T13:36:01.490Z,94949.20
2022-10-01T13:38:38.251Z,94934.00
2022-10-01T13:41:17.405Z,94930.20
2022-10-01T13:43:58.486Z,94928.00
2022-10-01T13:46:31.796Z,94926.80
2022-10-01T13:49:29.339Z,94932.80
2022-10-01T13:51:56.462Z,94942.60
2022-10-01T13:54:47.964Z,94938.60
2022-10-01T13:57:38.045Z,94942.80
2022-10-01T14:00:16.184Z,94942.60
2022-10-01T14:02:57.011Z,94948.40
2022-10-01T14:05:36.296Z,94948.20
2022-10-01T14:08:13.741Z,94953.00
2022-10-01T14:11:07.484Z,94959.00
2022-10-01T14:14:03.100Z,94952.20
2022-10-01T14:16:30.898Z,94950.20
2022-10-01T14:18:57.046Z,94952.60
2022-10-01T14:21:36.929Z,94954.00
2022-10-01T14:24:24.178Z,94954.40
2022-10-01T14:27:14.340Z,94950.60
2022-10-01T14:30:20.433Z,94954.40
2022-10-01T14:33:16.160Z,94946.80
2022-10-01T14:36:04.463Z,94951.80
2022-10-01T14:38:30.520Z,94951.60
2022-10-01T14:40:56.549Z,94946.40
2022-10-01T14:43:30.012Z,94954.20
2022-10-01T14:45:56.994Z,94954.80
2022-10-01T14:48:26.445Z,94952.00
2022-10-01T14:51:05.032Z,94954.20
2022-10-01T14:53:40.002Z,94954.00
2022-10-01T14:56:11.527Z,94954.60
2022-10-01T14:58:48.668Z,94957.40
2022-10-01T15:01:23.567Z,94956.80
2022-10-01T15:03:52.643Z,94959.60
2022-10-01T15:06:29.192Z,94964.00
2022-10-01T15:09:11.459Z,94967.80
2022-10-01T15:11:43.541Z,94975.40
2022-10-01T15:14:18.385Z,94974.00
2022-10-01T15:16:44.637Z,94982.80
2022-10-01T15:19:17.955Z,94987.60
2022-10-01T15:21:51.600Z,94980.20
2022-10-01T15:24:46.071Z,94983.20
2022-10-01T15:27:17.169Z,94982.20
2022-10-01T15:29:44.116Z,94987.20
2022-10-01T15:32:16.433Z,94989.40
2022-10-01T15:34:52.386Z,94989.60
2022-10-01T15:37:26.882Z,94987.20
2022-10-01T15:39:54.114Z,94988.40
2022-10-01T15:42:32.903Z,94985.80
2022-10-01T15:45:07.952Z,94984.60
2022-10-01T15:47:38.453Z,94983.00
2022-10-01T15:50:10.546Z,94985.40
2022-10-01T15:52:53.629Z,94987.20
2022-10-01T15:55:27.414Z,94987.60
2022-10-01T15:58:06.436Z,94986.80
2022-10-01T16:00:59.925Z,94988.00
2022-10-01T16:03:30.523Z,94983.40
2022-10-01T16:05:59.350Z,94987.40
2022-10-01T16:08:33.656Z,94989.20
2022-10-01T16:11:23.418Z,94987.80
2022-10-01T16:13:52.104Z,94987.20
2022-10-01T16:16:24.328Z,94991.20
2022-10-01T16:19:27.987Z,94996.40
2022-10-01T16:22:33.035Z,95001.40
2022-10-01T16:25:06.276Z,95001.80
2022-10-01T16:28:04.620Z,95004.80
2022-10-01T16:30:33.487Z,95011.20
2022-10-01T16:33:03.684Z,95007.00
2022-10-01T16:35:34.849Z,95005.60
2022-10-01T16:38:05.912Z,95012.80
2022-10-01T16:40:38.760Z,95012.40
2022-10-01T16:43:06.958Z,95020.00
2022-10-01T16:45:37.431Z,95026.80
2022-10-01T16:48:16.088Z,95027.20
2022-10-01T16:50:45.737Z,95025.20
2022-10-01T16:53:15.879Z,95024.60
2022-10-01T16:55:43.654Z,95026.80
2022-10-01T16:58:10.430Z,95035.40
2022-10-01T17:00:37.169Z,95036.00
2022-10-01T17:03:13.864Z,95046.60
2022-10-01T17:05:39.970Z,95050.40
2022-10-01T17:08:11.964Z,95050.60
2022-10-01T17:10:45.176Z,95055.80
2022-10-01T17:13:13.121Z,95064.60
2022-10-01T17:15:39.855Z,95069.80
2022-10-01T17:18:05.989Z,95066.40
2022-10-01T17:20:33.802Z,95067.60
2022-10-01T17:22:59.863Z,95066.80
2022-10-01T17:25:33.715Z,95070.60
2022-10-01T17:28:02.173Z,95070.60
2022-10-01T17:30:30.074Z,95068.40
2022-10-01T17:32:59.584Z,95076.00
2022-10-01T17:35:27.598Z,95074.60
2022-10-01T17:37:53.508Z,95076.40
2022-10-01T17:40:20.292Z,95074.80
2022-10-01T17:42:46.275Z,95082.60
2022-10-01T17:45:14.967Z,95088.20
2022-10-01T17:47:46.821Z,95102.80
2022-10-01T17:50:14.606Z,95103.80
2022-10-01T17:52:41.279Z,95104.20
2022-10-01T17:55:08.023Z,95111.40
2022-10-01T17:57:33.999Z,95110.60
2022-10-01T18:00:00.300Z,95119.20
2022-10-01T18:02:43.100Z,95124.60
2022-10-01T18:05:14.149Z,95123.40
2022-10-01T18:07:41.638Z,95125.80
2022-10-01T18:10:11.833Z,95131.80
2022-10-01T18:12:37.875Z,95131.80
2022-10-01T18:15:04.476Z,95134.20
2022-10-01T18:17:36.343Z,95139.40
2022-10-01T18:20:07.164Z,95139.20
2022-10-01T18:22:37.166Z,95143.20
2022-10-01T18:25:06.272Z,95144.60
2022-10-01T18:27:32.195Z,95145.40
2022-10-01T18:29:58.253Z,95144.60
2022-10-01T18:32:28.546Z,95143.80
2022-10-01T18:34:59.871Z,95141.20
2022-10-01T18:37:40.302Z,95142.20
2022-10-01T18:40:19.238Z,95143.80
2022-10-01T18:43:12.641Z,95144.60
2022-10-01T18:46:12.075Z,95148.20
2022-10-01T18:49:02.406Z,95157.20
2022-10-01T18:51:50.480Z,95158.40
2022-10-01T18:54:39.957Z,95166.20
2022-10-01T18:57:25.645Z,95164.60
2022-10-01T19:00:33.995Z,95169.80
2022-10-01T19:03:30.230Z,95173.20
2022-10-01T19:06:13.908Z,95175.60
2022-10-01T19:09:07.459Z,95185.20
2022-10-01T19:11:59.548Z,95179.20
2022-10-01T19:14:45.840Z,95182.20
2022-10-01T19:17:52.149Z,95179.60
2022-10-01T19:20:48.270Z,95185.60
2022-10-01T19:23:52.693Z,95188.60
2022-10-01T19:26:42.934Z,95194.60
2022-10-01T19:29:56.135Z,95192.60
2022-10-01T19:32:26.863Z,95193.20
2022-10-01T19:35:03.003Z,95198.80
2022-10-01T19:37:51.024Z,95203.80
2022-10-01T19:40:20.185Z,95200.00
2022-10-01T19:43:19.388Z,95207.20
2022-10-01T19:46:00.634Z,95216.00
2022-10-01T19:48:44.627Z,95216.00
2022-10-01T19:51:13.581Z,95226.60
2022-10-01T19:53:45.904Z,95229.40
2022-10-01T19:56:22.513Z,95235.40
2022-10-01T19:58:48.405Z,95238.20
2022-10-01T20:01:36.613Z,95246.40
2022-10-01T20:04:10.559Z,95247.20
2022-10-01T20:06:41.648Z,95249.60
2022-10-01T20:09:22.758Z,95260.20
2022-10-01T20:12:03.161Z,95257.20
2022-10-01T20:15:11.997Z,95261.80
2022-10-01T20:18:12.778Z,95263.00
2022-10-01T20:21:06.068Z,95270.00
2022-10-01T20:23:46.248Z,95263.60
2022-10-01T20:26:47.594Z,95273.60
2022-10-01T20:29:25.624Z,95279.60
2022-10-01T20:32:25.061Z,95280.60
2022-10-01T20:35:18.520Z,95289.20
2022-10-01T20:37:56.901Z,95297.60
2022-10-01T20:40:37.731Z,95298.20
2022-10-01T20:43:27.632Z,95301.60
2022-10-01T20:45:55.021Z,95304.20
2022-10-01T20:48:29.847Z,95315.40
2022-10-01T20:51:05.944Z,95315.00
2022-10-01T20:53:40.193Z,95321.80
2022-10-01T20:56:25.455Z,95318.60
2022-10-01T20:58:54.102Z,95324.20
2022-10-01T21:01:25.487Z,95329.00
2022-10-01T21:04:08.633Z,95332.00
2022-10-01T21:06:45.214Z,95334.00
2022-10-01T21:09:21.122Z,95334.60
2022-10-01T21:12:01.390Z,95337.00
2022-10-01T21:14:49.615Z,95338.20
2022-10-01T21:17:23.135Z,95344.20
2022-10-01T21:20:31.844Z,95347.60
2022-10-01T21:23:27.521Z,95351.20
2022-10-01T21:26:13.447Z,95350.80
2022-10-01T21:28:53.497Z,95352.80
2022-10-01T21:31:45.261Z,95358.40
2022-10-01T21:34:21.327Z,95359.60
2022-10-01T21:37:04.353Z,95363.40
2022-10-01T21:39:32.955Z,95372.00
2022-10-01T21:42:43.511Z,95382.00
2022-10-01T21:45:35.541Z,95383.00
2022-10-01T21:48:32.051Z,95378.80
2022-10-01T21:51:15.422Z,95396.60
2022-10-01T21:54:17.226Z,95406.20
2022-10-01T21:57:09.661Z,95406.20
2022-10-01T22:00:17.891Z,95416.00
2022-10-01T22:03:24.015Z,95424.20
2022-10-01T22:06:25.375Z,95422.40
2022-10-01T22:09:03.131Z,95422.60
2022-10-01T22:11:35.972Z,95425.40
2022-10-01T22:14:19.353Z,95429.60
2022-10-01T22:16:55.591Z,95436.40
2022-10-01T22:19:38.920Z,95435.60
2022-10-01T22:22:14.454Z,95445.20
2022-10-01T22:24:50.668Z,95459.20
2022-10-01T22:27:58.757Z,95462.20
2022-10-01T22:30:32.803Z,95457.40
2022-10-01T22:33:11.666Z,95466.20
2022-10-01T22:35:58.008Z,95470.80
2022-10-01T22:38:53.500Z,95474.80
2022-10-01T22:41:36.159Z,95481.80
2022-10-01T22:44:13.179Z,95478.40
2022-10-01T22:46:53.608Z,95483.00
2022-10-01T22:49:41.481Z,95486.80
2022-10-01T22:52:14.251Z,95488.40
2022-10-01T22:55:01.359Z,95490.40
2022-10-01T22:57:58.628Z,95494.00
2022-10-01T23:00:25.649Z,95499.40
2022-10-01T23:03:15.473Z,95487.80
2022-10-01T23:06:20.325Z,95492.40
2022-10-01T23:09:01.332Z,95498.20
2022-10-01T23:12:10.682Z,95500.40
2022-10-01T23:15:05.554Z,95505.00
2022-10-01T23:18:25.550Z,95504.80
2022-10-01T23:21:16.105Z,95515.60
2022-10-01T23:24:27.263Z,95513.40
2022-10-01T23:27:10.926Z,95518.00
2022-10-01T23:30:11.737Z,95526.20
2022-10-01T23:33:06.922Z,95532.40
2022-10-01T23:36:06.138Z,95533.20
2022-10-01T23:38:31.988Z,95534.20
2022-10-01T23:41:09.444Z,95541.00
2022-10-01T23:43:46.160Z,95535.80
2022-10-01T23:46:32.002Z,95534.00
2022-10-01T23:49:35.517Z,95533.80
2022-10-01T23:52:30.116Z,95530.80
2022-10-01T23:55:40.171Z,95543.60
2022-10-01T23:58:10.567Z,95547.00
